createdAt,value
2018-02-25T00:02:19.641Z,73.99
2018-02-25T00:04:47.231Z,73.28
2018-02-25T00:07:14.881Z,73.57
2018-02-25T00:09:42.445Z,74.21
2018-02-25T00:12:10.097Z,73.92
2018-02-25T00:14:37.730Z,74.48
2018-02-25T00:17:05.782Z,73.58
2018-02-25T00:19:33.388Z,73.38
2018-02-25T00:22:01.021Z,73.83
2018-02-25T00:24:28.609Z,73.90
2018-02-25T00:26:56.547Z,74.51
2018-02-25T00:29:24.183Z,75.99
2018-02-25T00:31:51.887Z,76.33
2018-02-25T00:34:19.500Z,76.52
2018-02-25T00:36:47.117Z,75.58
2018-02-25T00:39:14.980Z,75.36
2018-02-25T00:41:42.720Z,74.99
2018-02-25T00:44:10.522Z,74.89
2018-02-25T00:46:38.198Z,74.84
2018-02-25T00:49:06.028Z,74.74
2018-02-25T00:51:33.612Z,75.33
2018-02-25T00:54:01.217Z,75.85
2018-02-25T00:56:28.826Z,75.59
2018-02-25T00:58:56.764Z,75.81
2018-02-25T01:01:24.345Z,76.28
2018-02-25T01:03:51.910Z,76.65
2018-02-25T01:06:19.576Z,77.09
2018-02-25T01:08:47.146Z,77.80
2018-02-25T01:11:15.036Z,78.19
2018-02-25T01:13:42.660Z,78.73
2018-02-25T01:16:10.300Z,79.04
2018-02-25T01:18:37.906Z,79.19
2018-02-25T01:21:05.570Z,79.59
2018-02-25T01:23:33.177Z,79.98
2018-02-25T01:26:00.789Z,79.79
2018-02-25T01:28:28.382Z,79.71
2018-02-25T01:30:55.987Z,79.91
2018-02-25T01:33:23.703Z,79.93
2018-02-25T01:35:51.312Z,80.25
2018-02-25T01:38:18.901Z,80.21
2018-02-25T01:40:46.514Z,80.46
2018-02-25T01:43:14.066Z,80.32
2018-02-25T01:45:41.669Z,80.27
2018-02-25T01:48:09.276Z,80.40
2018-02-25T01:50:48.607Z,80.48
2018-02-25T01:53:16.484Z,80.57
2018-02-25T01:55:44.084Z,80.56
2018-02-25T01:58:11.651Z,80.77
2018-02-25T02:00:39.247Z,81.02
2018-02-25T02:03:07.224Z,81.03
2018-02-25T02:05:35.352Z,81.33
2018-02-25T02:08:03.781Z,81.69
2018-02-25T02:10:31.424Z,81.56
2018-02-25T02:12:59.095Z,81.14
2018-02-25T02:15:26.776Z,81.21
2018-02-25T02:17:54.445Z,81.11
2018-02-25T02:20:22.081Z,81.48
2018-02-25T02:22:49.729Z,81.44
2018-02-25T02:25:17.816Z,81.02
2018-02-25T02:27:45.467Z,80.99
2018-02-25T02:30:13.212Z,80.87
2018-02-25T02:32:40.794Z,80.88
2018-02-25T02:35:08.449Z,80.74
2018-02-25T02:37:36.075Z,80.96
2018-02-25T02:40:03.730Z,80.82
2018-02-25T02:42:31.397Z,81.04
2018-02-25T02:44:59.018Z,80.75
2018-02-25T02:47:26.631Z,80.89
2018-02-25T02:49:54.279Z,80.47
2018-02-25T02:52:22.673Z,80.37
2018-02-25T02:54:50.297Z,80.13
2018-02-25T02:57:17.903Z,80.28
2018-02-25T02:59:45.495Z,80.38
2018-02-25T03:02:15.924Z,80.09
2018-02-25T03:04:46.773Z,79.68
2018-02-25T03:07:19.550Z,79.24
2018-02-25T03:09:49.748Z,78.89
2018-02-25T03:12:37.340Z,78.93
2018-02-25T03:15:05.203Z,79.18
2018-02-25T03:17:32.824Z,79.12
2018-02-25T03:20:00.675Z,79.49
2018-02-25T03:22:28.292Z,79.45
2018-02-25T03:24:55.886Z,79.51
2018-02-25T03:27:23.598Z,79.25
2018-02-25T03:29:51.195Z,79.27
2018-02-25T03:32:20.409Z,79.34
2018-02-25T03:34:48.000Z,79.39
2018-02-25T03:37:15.585Z,79.42
2018-02-25T03:39:43.541Z,79.33
2018-02-25T03:42:11.114Z,79.76
2018-02-25T03:44:38.690Z,79.92
2018-02-25T03:47:06.560Z,79.81
2018-02-25T03:49:34.297Z,79.52
2018-02-25T03:52:01.920Z,79.21
2018-02-25T03:54:29.525Z,78.70
2018-02-25T03:56:57.137Z,78.49
2018-02-25T03:59:24.949Z,78.50
2018-02-25T04:01:52.606Z,78.35
2018-02-25T04:04:21.153Z,77.87
2018-02-25T04:06:48.750Z,77.92
2018-02-25T04:09:16.565Z,77.94
2018-02-25T04:11:44.253Z,78.02
2018-02-25T04:14:11.847Z,78.33
2018-02-25T04:16:39.456Z,77.97
2018-02-25T04:19:07.195Z,77.37
2018-02-25T04:21:34.803Z,76.91
2018-02-25T04:24:02.398Z,76.63
2018-02-25T04:26:30.007Z,77.09
2018-02-25T04:28:57.616Z,76.99
2018-02-25T04:31:27.774Z,77.06
2018-02-25T04:33:55.717Z,77.02
2018-02-25T04:36:23.362Z,77.31
2018-02-25T04:38:50.998Z,77.34
2018-02-25T04:41:18.572Z,77.40
2018-02-25T04:43:46.182Z,77.72
2018-02-25T04:46:13.884Z,77.44
2018-02-25T04:48:41.443Z,77.91
2018-02-25T04:51:09.831Z,77.99
2018-02-25T04:53:37.526Z,78.18
2018-02-25T04:56:05.122Z,78.27
2018-02-25T04:58:33.067Z,78.42
2018-02-25T05:01:00.746Z,78.11
2018-02-25T05:03:29.464Z,77.57
2018-02-25T05:05:57.131Z,77.21
2018-02-25T05:08:24.742Z,77.09
2018-02-25T05:10:52.335Z,76.96
2018-02-25T05:13:19.980Z,76.85
2018-02-25T05:15:47.545Z,76.83
2018-02-25T05:18:15.149Z,76.59
2018-02-25T05:20:42.775Z,76.26
2018-02-25T05:23:11.917Z,76.19
2018-02-25T05:25:39.513Z,76.19
2018-02-25T05:28:07.181Z,76.38
2018-02-25T05:30:34.786Z,76.89
2018-02-25T05:33:02.416Z,77.31
2018-02-25T05:35:30.067Z,77.29
2018-02-25T05:37:57.647Z,76.99
2018-02-25T05:40:25.291Z,76.87
2018-02-25T05:42:53.199Z,76.58
2018-02-25T05:45:20.805Z,76.85
2018-02-25T05:47:48.363Z,76.95
2018-02-25T05:50:16.313Z,76.94
2018-02-25T05:52:44.084Z,77.10
2018-02-25T05:55:12.729Z,76.83
2018-02-25T05:57:40.334Z,76.65
2018-02-25T06:00:08.144Z,76.89
2018-02-25T06:02:35.716Z,77.00
2018-02-25T06:05:03.355Z,77.12
2018-02-25T06:07:32.457Z,77.07
2018-02-25T06:10:00.051Z,77.05
2018-02-25T06:12:28.389Z,77.08
2018-02-25T06:14:55.976Z,76.88
2018-02-25T06:17:24.389Z,76.42
2018-02-25T06:19:52.056Z,76.18
2018-02-25T06:22:19.688Z,76.18
2018-02-25T06:24:47.306Z,76.42
2018-02-25T06:27:14.992Z,76.48
2018-02-25T06:29:42.599Z,76.81
2018-02-25T06:32:10.381Z,77.24
2018-02-25T06:34:37.979Z,77.30
2018-02-25T06:37:06.029Z,77.06
2018-02-25T06:39:33.953Z,76.89
2018-02-25T06:42:01.562Z,76.38
2018-02-25T06:44:29.230Z,76.19
2018-02-25T06:46:56.832Z,76.45
2018-02-25T06:49:24.627Z,76.76
2018-02-25T06:51:52.232Z,76.90
2018-02-25T06:54:19.862Z,77.02
2018-02-25T06:56:47.511Z,77.48
2018-02-25T06:59:15.099Z,76.72
2018-02-25T07:01:42.767Z,75.65
2018-02-25T07:04:10.386Z,74.37
2018-02-25T07:06:37.980Z,74.12
2018-02-25T07:09:06.141Z,73.94
2018-02-25T07:11:34.932Z,73.64
2018-02-25T07:14:03.280Z,73.52
2018-02-25T07:16:30.859Z,73.25
2018-02-25T07:18:58.452Z,72.75
2018-02-25T07:21:26.402Z,70.60
2018-02-25T07:23:55.043Z,70.34
2018-02-25T07:26:22.641Z,70.86
2018-02-25T07:28:50.465Z,69.83
2018-02-25T07:31:18.045Z,68.12
2018-02-25T07:33:45.696Z,67.69
2018-02-25T07:36:13.365Z,66.36
2018-02-25T07:38:40.954Z,67.41
2018-02-25T07:41:08.528Z,67.27
2018-02-25T07:43:36.155Z,67.31
2018-02-25T07:46:03.729Z,67.25
2018-02-25T07:48:31.297Z,64.43
2018-02-25T07:50:58.889Z,64.49
2018-02-25T07:53:26.506Z,64.82
2018-02-25T07:55:57.042Z,63.14
2018-02-25T07:58:24.629Z,62.86
2018-02-25T08:00:52.275Z,62.36
2018-02-25T08:03:20.581Z,63.09
2018-02-25T08:05:48.212Z,64.14
2018-02-25T08:08:16.013Z,63.36
2018-02-25T08:10:43.602Z,61.94
2018-02-25T08:13:12.003Z,62.69
2018-02-25T08:15:41.180Z,61.35
2018-02-25T08:18:08.729Z,62.05
2018-02-25T08:20:36.305Z,64.21
2018-02-25T08:23:03.898Z,62.41
2018-02-25T08:25:31.538Z,61.69
2018-02-25T08:27:59.165Z,59.65
2018-02-25T08:30:26.774Z,60.12
2018-02-25T08:32:54.354Z,59.78
2018-02-25T08:35:21.966Z,59.46
2018-02-25T08:37:49.569Z,59.44
2018-02-25T08:40:17.189Z,59.75
2018-02-25T08:42:44.776Z,59.91
2018-02-25T08:45:12.547Z,60.84
2018-02-25T08:47:40.123Z,60.73
2018-02-25T08:50:07.793Z,60.74
2018-02-25T08:52:35.364Z,59.08
2018-02-25T08:55:02.948Z,58.34
2018-02-25T08:57:30.522Z,60.04
2018-02-25T08:59:58.106Z,59.05
2018-02-25T09:02:25.724Z,59.08
2018-02-25T09:04:53.301Z,58.68
2018-02-25T09:07:20.942Z,59.77
2018-02-25T09:09:48.628Z,60.69
2018-02-25T09:12:16.229Z,60.00
2018-02-25T09:14:43.797Z,60.03
2018-02-25T09:17:12.028Z,59.51
2018-02-25T09:19:39.638Z,59.01
2018-02-25T09:22:07.270Z,59.88
2018-02-25T09:24:34.928Z,59.33
2018-02-25T09:27:02.667Z,58.39
2018-02-25T09:29:30.291Z,60.29
2018-02-25T09:31:59.622Z,60.97
2018-02-25T09:34:27.217Z,61.92
2018-02-25T09:36:54.779Z,60.92
2018-02-25T09:39:22.382Z,60.77
2018-02-25T09:41:49.968Z,59.37
2018-02-25T09:44:17.583Z,59.01
2018-02-25T09:46:45.181Z,60.07
2018-02-25T09:49:13.138Z,58.63
2018-02-25T09:51:40.767Z,57.77
2018-02-25T09:54:08.355Z,56.40
2018-02-25T09:56:35.971Z,57.61
2018-02-25T09:59:03.600Z,57.40
2018-02-25T10:01:31.205Z,55.36
2018-02-25T10:03:58.876Z,54.57
2018-02-25T10:06:26.818Z,55.03
2018-02-25T10:08:54.396Z,55.37
2018-02-25T10:11:22.162Z,55.35
2018-02-25T10:13:49.752Z,55.28
2018-02-25T10:16:17.622Z,55.60
2018-02-25T10:18:45.294Z,54.65
2018-02-25T10:21:13.527Z,55.37
2018-02-25T10:23:41.087Z,54.00
2018-02-25T10:26:08.709Z,54.55
2018-02-25T10:28:36.317Z,55.17
2018-02-25T10:31:03.955Z,55.17
2018-02-25T10:33:31.629Z,55.45
2018-02-25T10:35:59.214Z,56.19
2018-02-25T10:38:26.942Z,56.77
2018-02-25T10:40:54.514Z,56.41
2018-02-25T10:43:22.817Z,57.50
2018-02-25T10:45:58.256Z,57.23
2018-02-25T10:48:26.120Z,59.49
2018-02-25T10:50:53.703Z,58.60
2018-02-25T10:53:21.628Z,58.12
2018-02-25T10:55:49.199Z,58.31
2018-02-25T10:58:16.792Z,58.28
2018-02-25T11:00:50.013Z,57.11
2018-02-25T11:03:17.582Z,57.79
2018-02-25T11:05:45.151Z,57.51
2018-02-25T11:08:12.836Z,57.36
2018-02-25T11:10:40.410Z,57.09
2018-02-25T11:13:08.098Z,57.44
2018-02-25T11:15:35.778Z,56.79
2018-02-25T11:18:05.885Z,57.71
2018-02-25T11:20:33.545Z,57.04
2018-02-25T11:23:01.428Z,57.40
2018-02-25T11:25:29.084Z,53.80
2018-02-25T11:27:57.927Z,54.83
2018-02-25T11:30:25.734Z,53.64
2018-02-25T11:32:53.348Z,52.38
2018-02-25T11:35:21.280Z,52.92
2018-02-25T11:37:49.931Z,54.10
2018-02-25T11:40:17.530Z,53.10
2018-02-25T11:42:45.088Z,52.92
2018-02-25T11:45:13.331Z,51.79
2018-02-25T11:47:41.048Z,51.44
2018-02-25T11:50:08.605Z,53.72
2018-02-25T11:52:36.293Z,51.67
2018-02-25T11:55:03.935Z,52.45
2018-02-25T11:57:31.532Z,50.67
2018-02-25T11:59:59.084Z,50.75
2018-02-25T12:02:26.665Z,49.89
2018-02-25T12:04:54.283Z,49.64
2018-02-25T12:07:22.113Z,50.19
2018-02-25T12:09:49.754Z,48.41
2018-02-25T12:12:17.361Z,47.28
2018-02-25T12:14:44.956Z,44.81
2018-02-25T12:17:12.794Z,41.80
2018-02-25T12:19:40.411Z,40.20
2018-02-25T12:22:08.011Z,38.31
2018-02-25T12:24:35.594Z,37.38
2018-02-25T12:27:03.406Z,37.59
2018-02-25T12:29:31.022Z,37.43
2018-02-25T12:31:58.596Z,37.36
2018-02-25T12:34:26.213Z,37.68
2018-02-25T12:36:53.788Z,38.21
2018-02-25T12:39:21.765Z,38.58
2018-02-25T12:41:49.361Z,38.18
2018-02-25T12:44:16.978Z,40.25
2018-02-25T12:46:44.539Z,40.85
2018-02-25T12:49:12.583Z,41.69
2018-02-25T12:51:40.175Z,41.16
2018-02-25T12:54:08.096Z,38.40
2018-02-25T12:56:35.697Z,37.54
2018-02-25T12:59:03.288Z,37.36
2018-02-25T13:01:30.967Z,38.17
2018-02-25T13:03:59.436Z,37.16
2018-02-25T13:06:27.069Z,36.70
2018-02-25T13:08:54.652Z,36.48
2018-02-25T13:11:22.231Z,36.28
2018-02-25T13:13:49.818Z,37.03
2018-02-25T13:16:17.410Z,38.88
2018-02-25T13:18:44.985Z,36.24
2018-02-25T13:21:12.677Z,35.34
2018-02-25T13:23:40.266Z,33.04
2018-02-25T13:26:07.873Z,34.18
2018-02-25T13:28:35.452Z,35.63
2018-02-25T13:31:03.080Z,32.35
2018-02-25T13:33:30.747Z,33.00
2018-02-25T13:35:58.647Z,33.23
2018-02-25T13:38:30.046Z,32.53
2018-02-25T13:40:57.579Z,31.97
2018-02-25T13:43:25.280Z,33.49
2018-02-25T13:46:02.372Z,31.75
2018-02-25T13:48:37.687Z,32.41
2018-02-25T13:51:05.394Z,33.04
2018-02-25T13:53:32.981Z,33.45
2018-02-25T13:56:00.644Z,33.95
2018-02-25T13:58:28.469Z,33.32
2018-02-25T14:00:56.089Z,33.28
2018-02-25T14:03:24.348Z,33.56
2018-02-25T14:05:51.932Z,35.67
2018-02-25T14:08:19.586Z,33.57
2018-02-25T14:10:47.162Z,31.95
2018-02-25T14:13:15.270Z,31.71
2018-02-25T14:15:46.321Z,32.80
2018-02-25T14:18:13.938Z,34.70
2018-02-25T14:20:41.532Z,34.51
2018-02-25T14:23:09.592Z,33.71
2018-02-25T14:25:37.301Z,32.30
2018-02-25T14:28:04.884Z,34.02
2018-02-25T14:30:32.457Z,32.31
2018-02-25T14:33:00.107Z,31.12
2018-02-25T14:35:27.710Z,30.24
2018-02-25T14:37:55.276Z,30.87
2018-02-25T14:40:22.860Z,30.59
2018-02-25T14:42:50.445Z,30.68
2018-02-25T14:45:18.042Z,31.87
2018-02-25T14:47:45.645Z,32.37
2018-02-25T14:50:13.241Z,34.28
2018-02-25T14:52:40.846Z,32.54
2018-02-25T14:55:08.528Z,33.76
2018-02-25T14:57:36.181Z,31.72
2018-02-25T15:00:04.050Z,32.27
2018-02-25T15:02:31.631Z,32.67
2018-02-25T15:04:59.252Z,33.97
2018-02-25T15:07:26.817Z,34.74
2018-02-25T15:09:54.404Z,34.08
2018-02-25T15:12:21.980Z,34.99
2018-02-25T15:14:50.053Z,35.99
2018-02-25T15:17:20.600Z,36.17
2018-02-25T15:19:51.219Z,37.64
2018-02-25T15:22:18.791Z,37.23
2018-02-25T15:24:46.444Z,36.50
2018-02-25T15:27:14.178Z,37.62
2018-02-25T15:29:41.816Z,38.93
2018-02-25T15:32:09.453Z,39.89
2018-02-25T15:34:40.916Z,39.04
2018-02-25T15:37:08.750Z,39.22
2018-02-25T15:39:37.111Z,38.66
2018-02-25T15:42:06.135Z,39.53
2018-02-25T15:44:34.060Z,40.70
2018-02-25T15:47:01.736Z,39.77
2018-02-25T15:49:29.415Z,38.75
2018-02-25T15:51:57.025Z,38.59
2018-02-25T15:54:24.610Z,39.32
2018-02-25T15:56:52.187Z,41.08
2018-02-25T15:59:19.827Z,43.19
2018-02-25T16:01:47.435Z,45.03
2018-02-25T16:04:15.710Z,46.28
2018-02-25T16:06:43.294Z,47.38
2018-02-25T16:09:11.739Z,48.20
2018-02-25T16:11:39.302Z,48.92
2018-02-25T16:14:06.973Z,49.81
2018-02-25T16:16:34.536Z,49.21
2018-02-25T16:19:02.121Z,51.22
2018-02-25T16:26:33.297Z,50.73
2018-02-25T16:29:01.011Z,50.68
2018-02-25T16:31:29.090Z,51.38
2018-02-25T16:33:56.842Z,51.55
2018-02-25T16:36:25.202Z,52.11
2018-02-25T16:38:52.995Z,52.21
2018-02-25T16:41:20.580Z,52.31
2018-02-25T16:43:48.252Z,53.20
2018-02-25T16:46:15.952Z,53.83
2018-02-25T16:48:43.541Z,55.16
2018-02-25T16:51:12.029Z,55.00
2018-02-25T16:53:39.715Z,55.22
2018-02-25T16:56:07.319Z,55.71
2018-02-25T16:58:34.915Z,56.44
2018-02-25T17:01:02.770Z,56.47
2018-02-25T17:03:30.385Z,56.46
2018-02-25T17:05:57.973Z,57.70
2018-02-25T17:08:26.387Z,57.49
2018-02-25T17:10:54.263Z,58.63
2018-02-25T17:13:22.815Z,58.89
2018-02-25T17:15:50.369Z,59.08
2018-02-25T17:18:17.930Z,59.13
2018-02-25T17:20:45.548Z,59.57
2018-02-25T17:23:13.241Z,60.50
2018-02-25T17:25:40.907Z,61.27
2018-02-25T17:28:08.567Z,61.41
2018-02-25T17:30:36.203Z,61.53
2018-02-25T17:33:04.035Z,62.01
2018-02-25T17:35:33.401Z,62.15
2018-02-25T17:38:01.278Z,62.31
2018-02-25T17:40:29.505Z,62.85
2018-02-25T17:42:57.434Z,62.93
2018-02-25T17:45:25.901Z,63.15
2018-02-25T17:47:53.491Z,63.50
2018-02-25T17:50:21.170Z,63.53
2018-02-25T17:52:49.239Z,63.66
2018-02-25T17:55:24.376Z,63.89
2018-02-25T17:57:45.289Z,64.15
2018-02-25T18:00:12.905Z,64.63
2018-02-25T18:02:40.485Z,64.04
2018-02-25T18:05:08.307Z,64.53
2018-02-25T18:07:35.961Z,64.32
2018-02-25T18:10:03.541Z,65.17
2018-02-25T18:12:31.163Z,65.48
2018-02-25T18:14:59.098Z,66.16
2018-02-25T18:17:27.919Z,66.00
2018-02-25T18:19:55.718Z,66.71
2018-02-25T18:22:23.325Z,67.44
2018-02-25T18:24:54.544Z,67.80
2018-02-25T18:27:22.161Z,67.79
2018-02-25T18:29:49.741Z,68.22
2018-02-25T18:32:17.370Z,68.99
2018-02-25T18:34:45.020Z,69.39
2018-02-25T18:37:13.672Z,69.22
2018-02-25T18:39:41.264Z,70.76
2018-02-25T18:42:10.205Z,71.40
2018-02-25T18:44:37.795Z,71.13
2018-02-25T18:47:05.603Z,71.28
2018-02-25T18:49:33.200Z,71.49
2018-02-25T18:52:01.267Z,72.41
2018-02-25T18:54:29.243Z,72.76
2018-02-25T18:56:56.823Z,72.61
2018-02-25T18:59:24.643Z,72.66
2018-02-25T19:01:58.444Z,73.64
2018-02-25T19:04:26.325Z,74.52
2018-02-25T19:06:53.921Z,74.30
2018-02-25T19:09:29.836Z,73.41
2018-02-25T19:12:04.211Z,72.09
2018-02-25T19:14:44.375Z,71.16
2018-02-25T19:17:12.264Z,70.74
2018-02-25T19:19:39.958Z,70.61
2018-02-25T19:22:07.576Z,70.72
2018-02-25T19:24:38.872Z,70.74
2018-02-25T19:27:06.694Z,70.80
2018-02-25T19:29:34.955Z,71.30
2018-02-25T19:32:02.583Z,71.39
2018-02-25T19:34:31.904Z,71.45
2018-02-25T19:37:05.063Z,71.31
2018-02-25T19:39:39.027Z,71.58
2018-02-25T19:42:15.072Z,71.65
2018-02-25T19:44:42.918Z,71.52
2018-02-25T19:47:10.643Z,71.72
2018-02-25T19:49:38.397Z,71.68
2018-02-25T19:52:06.026Z,72.00
2018-02-25T19:54:33.622Z,72.01
2018-02-25T19:57:01.230Z,72.26
2018-02-25T19:59:28.865Z,72.11
2018-02-25T20:01:56.476Z,72.36
2018-02-25T20:04:25.602Z,72.56
2018-02-25T20:06:53.220Z,72.73
2018-02-25T20:09:20.934Z,73.10
2018-02-25T20:11:48.666Z,73.41
2018-02-25T20:14:16.369Z,73.48
2018-02-25T20:16:43.951Z,73.29
2018-02-25T20:19:12.410Z,73.35
2018-02-25T20:21:39.989Z,73.72
2018-02-25T20:24:07.586Z,73.96
2018-02-25T20:26:35.211Z,74.50
2018-02-25T20:29:02.875Z,74.79
2018-02-25T20:31:32.081Z,75.52
2018-02-25T20:33:59.677Z,75.23
2018-02-25T20:36:27.272Z,75.08
2018-02-25T20:38:54.849Z,75.15
2018-02-25T20:41:23.598Z,75.29
2018-02-25T20:43:51.264Z,75.57
2018-02-25T20:46:18.857Z,76.17
2018-02-25T20:48:46.558Z,76.24
2018-02-25T20:51:14.879Z,76.34
2018-02-25T20:53:42.454Z,76.20
2018-02-25T20:56:10.052Z,76.04
2018-02-25T20:58:37.628Z,76.46
2018-02-25T21:01:05.228Z,76.47
2018-02-25T21:03:32.839Z,76.54
2018-02-25T21:06:00.438Z,76.96
2018-02-25T21:08:28.034Z,77.00
2018-02-25T21:10:55.715Z,76.57
2018-02-25T21:13:23.708Z,75.65
2018-02-25T21:15:51.417Z,75.67
2018-02-25T21:18:19.594Z,75.27
2018-02-25T21:20:47.251Z,75.62
2018-02-25T21:23:14.883Z,75.59
2018-02-25T21:25:43.084Z,75.65
2018-02-25T21:28:10.753Z,75.49
2018-02-25T21:30:38.379Z,75.92
2018-02-25T21:33:06.501Z,75.85
2018-02-25T21:35:34.094Z,75.68
2018-02-25T21:38:01.731Z,76.42
2018-02-25T21:40:29.402Z,76.53
2018-02-25T21:42:57.000Z,76.75
2018-02-25T21:45:25.917Z,76.93
2018-02-25T21:47:53.770Z,77.24
2018-02-25T21:50:21.653Z,77.26
2018-02-25T21:52:49.231Z,77.02
2018-02-25T21:55:17.441Z,77.17
2018-02-25T21:57:50.545Z,77.50
2018-02-25T22:00:18.194Z,77.50
2018-02-25T22:02:51.510Z,77.89
2018-02-25T22:05:19.443Z,78.09
2018-02-25T22:07:47.134Z,78.24
2018-02-25T22:10:14.753Z,78.29
2018-02-25T22:12:42.584Z,78.34
2018-02-25T22:15:11.052Z,78.69
2018-02-25T22:17:38.840Z,78.78
2018-02-25T22:20:06.469Z,78.55
2018-02-25T22:22:34.154Z,78.60
2018-02-25T22:25:01.794Z,78.66
2018-02-25T22:27:29.497Z,78.96
2018-02-25T22:29:57.092Z,79.17
2018-02-25T22:32:24.970Z,79.56
2018-02-25T22:34:52.573Z,79.76
2018-02-25T22:37:20.215Z,79.74
2018-02-25T22:39:47.874Z,79.88
2018-02-25T22:42:15.470Z,80.06
2018-02-25T22:44:43.119Z,80.50
2018-02-25T22:47:11.518Z,80.37
2018-02-25T22:49:40.060Z,80.27
2018-02-25T22:52:07.734Z,79.91
2018-02-25T22:54:35.686Z,80.09
2018-02-25T22:57:03.282Z,80.40
2018-02-25T22:59:30.878Z,80.85
2018-02-25T23:01:58.960Z,81.16
2018-02-25T23:04:26.581Z,81.44
2018-02-25T23:06:54.156Z,81.68
2018-02-25T23:09:21.755Z,82.07
2018-02-25T23:11:51.822Z,82.22
2018-02-25T23:14:19.556Z,82.04
2018-02-25T23:16:47.146Z,81.06
2018-02-25T23:19:15.403Z,80.39
2018-02-25T23:21:43.001Z,80.31
2018-02-25T23:24:10.581Z,79.93
2018-02-25T23:26:40.145Z,80.03
2018-02-25T23:29:08.050Z,79.74
2018-02-25T23:31:37.501Z,79.55
2018-02-25T23:34:05.163Z,79.09
2018-02-25T23:36:34.105Z,78.53
2018-02-25T23:39:01.827Z,78.35
2018-02-25T23:41:29.416Z,78.02
2018-02-25T23:43:58.262Z,77.64
2018-02-25T23:46:27.613Z,77.75
2018-02-25T23:48:55.255Z,77.61
2018-02-25T23:51:22.809Z,77.29
2018-02-25T23:53:50.406Z,77.07
2018-02-25T23:56:17.986Z,77.17
2018-02-25T23:58:45.561Z,76.87
